Time;durP1;ratioP1;P1;durP2;ratioP2;P2;SDS_P1;SDS_P2;PMS_P1;PMS_P2;Temp;Humidity;BMP_temperature;BMP_pressure;BME280_temperature;BME280_humidity;BME280_pressure;Samples;Min_cycle;Max_cycle;Signal;HPM_P1;HPM_P2
2023/01/07 00:02:15;;;;;;;6.63;2.10;;;;;;;;;;5094421;28;20038;-57
2023/01/07 00:04:40;;;;;;;5.67;2.87;;;;;;;;;;5093360;28;20073;-58
2023/01/07 00:07:06;;;;;;;10.13;4.43;;;;;;;;;;5092656;28;20048;-56
2023/01/07 00:09:31;;;;;;;6.03;2.77;;;;;;;;;;5094978;28;20043;-59
2023/01/07 00:11:57;;;;;;;29.00;7.40;;;;;;;;;;5094980;28;20047;-60
2023/01/07 00:14:22;;;;;;;6.17;2.33;;;;;;;;;;5095872;28;20483;-59
2023/01/07 00:16:47;;;;;;;36.30;5.53;;;;;;;;;;5093551;28;20084;-58
2023/01/07 00:19:14;;;;;;;10.03;4.73;;;;;;;;;;5092884;28;20031;-59
2023/01/07 00:21:39;;;;;;;6.67;3.30;;;;;;;;;;5093168;28;20024;-62
2023/01/07 00:24:05;;;;;;;21.97;5.50;;;;;;;;;;5096845;28;20027;-59
2023/01/07 00:26:32;;;;;;;8.63;5.00;;;;;;;;;;5096792;28;20040;-60
2023/01/07 00:28:57;;;;;;;44.37;4.87;;;;;;;;;;5094038;28;20065;-57
2023/01/07 00:31:27;;;;;;;10.40;4.37;;;;;;;;;;5094294;28;20012;-58
2023/01/07 00:36:18;;;;;;;8.90;3.00;;;;;;;;;;5093958;28;20026;-58
2023/01/07 00:38:44;;;;;;;6.80;2.13;;;;;;;;;;5094331;28;20024;-59
2023/01/07 00:41:10;;;;;;;8.53;3.23;;;;;;;;;;5092455;28;20016;-58
2023/01/07 00:43:36;;;;;;;8.43;3.33;;;;;;;;;;5094358;28;20369;-58
2023/01/07 00:46:02;;;;;;;9.70;3.53;;;;;;;;;;5092841;28;20123;-63
2023/01/07 00:48:27;;;;;;;24.57;3.90;;;;;;;;;;5092368;28;20078;-58
2023/01/07 00:50:54;;;;;;;6.33;3.37;;;;;;;;;;5092345;28;20529;-58
2023/01/07 00:53:20;;;;;;;11.33;3.77;;;;;;;;;;5093371;28;20472;-58
2023/01/07 00:55:46;;;;;;;4.13;2.13;;;;;;;;;;5093865;28;20019;-58
2023/01/07 00:58:13;;;;;;;9.20;4.80;;;;;;;;;;5093725;28;20031;-59
2023/01/07 01:00:39;;;;;;;7.73;2.20;;;;;;;;;;5093549;28;20409;-57
2023/01/07 01:03:04;;;;;;;5.57;1.70;;;;;;;;;;5093567;28;20027;-58
2023/01/07 01:05:29;;;;;;;7.70;3.37;;;;;;;;;;5093263;28;20456;-57
2023/01/07 01:07:56;;;;;;;8.23;3.37;;;;;;;;;;5092242;28;20560;-57
2023/01/07 01:10:21;;;;;;;10.03;4.80;;;;;;;;;;5093672;28;20016;-57
2023/01/07 01:12:48;;;;;;;9.23;2.13;;;;;;;;;;5091815;28;20023;-58
2023/01/07 01:15:15;;;;;;;8.87;3.13;;;;;;;;;;5092947;28;20020;-57
2023/01/07 01:17:40;;;;;;;9.03;4.47;;;;;;;;;;5094568;28;20098;-59
2023/01/07 01:20:07;;;;;;;9.50;4.70;;;;;;;;;;5094957;28;20120;-58
2023/01/07 01:22:32;;;;;;;6.07;2.67;;;;;;;;;;5094994;28;20028;-58
2023/01/07 01:24:58;;;;;;;5.97;2.07;;;;;;;;;;5093640;28;20061;-57
2023/01/07 01:27:23;;;;;;;12.67;5.57;;;;;;;;;;5093333;28;20012;-59
2023/01/07 01:29:50;;;;;;;4.60;2.67;;;;;;;;;;5091652;28;20033;-57
2023/01/07 01:32:15;;;;;;;8.00;3.57;;;;;;;;;;5092904;28;20020;-57
2023/01/07 01:34:40;;;;;;;9.07;3.90;;;;;;;;;;5093632;28;20081;-58
2023/01/07 01:37:06;;;;;;;6.27;2.77;;;;;;;;;;5093446;28;20016;-57
2023/01/07 01:39:33;;;;;;;9.23;4.50;;;;;;;;;;5093281;28;20035;-58
2023/01/07 01:41:58;;;;;;;10.53;4.17;;;;;;;;;;5091678;28;20024;-58
2023/01/07 01:44:33;;;;;;;13.20;2.67;;;;;;;;;;5091593;28;20024;-59
2023/01/07 01:46:59;;;;;;;4.78;2.42;;;;;;;;;;5091168;28;20028;-59
2023/01/07 01:49:26;;;;;;;7.43;3.70;;;;;;;;;;5092480;28;20020;-59
2023/01/07 01:52:15;;;;;;;8.43;3.90;;;;;;;;;;5091395;28;20021;-57
2023/01/07 01:54:42;;;;;;;7.67;3.13;;;;;;;;;;5068595;28;20083;-57
2023/01/07 01:57:07;;;;;;;9.40;3.53;;;;;;;;;;5090989;28;20020;-57
2023/01/07 01:59:36;;;;;;;10.13;4.80;;;;;;;;;;5093032;28;20372;-58
2023/01/07 02:02:02;;;;;;;10.63;4.60;;;;;;;;;;5092751;28;20028;-59
2023/01/07 02:04:29;;;;;;;12.10;3.77;;;;;;;;;;5091396;28;20020;-59
2023/01/07 02:07:03;;;;;;;9.57;3.90;;;;;;;;;;5092422;28;20048;-59
2023/01/07 02:09:28;;;;;;;9.63;3.27;;;;;;;;;;5092495;28;20107;-59
2023/01/07 02:12:03;;;;;;;10.80;4.60;;;;;;;;;;5092316;28;20543;-59
2023/01/07 02:14:57;;;;;;;11.60;4.93;;;;;;;;;;5091471;28;20035;-59
2023/01/07 02:17:23;;;;;;;7.50;3.07;;;;;;;;;;5078803;28;20257;-57
2023/01/07 02:19:57;;;;;;;7.57;3.50;;;;;;;;;;5091097;28;20040;-57
2023/01/07 02:22:41;;;;;;;9.50;3.63;;;;;;;;;;5092438;28;20495;-57
2023/01/07 02:25:16;;;;;;;9.67;3.93;;;;;;;;;;5092777;28;20358;-59
2023/01/07 02:27:47;;;;;;;8.35;3.75;;;;;;;;;;5097716;28;20020;-58
2023/01/07 02:30:31;;;;;;;11.57;5.23;;;;;;;;;;5097555;28;20782;-58
2023/01/07 02:33:15;;;;;;;10.50;4.93;;;;;;;;;;5096288;28;20043;-59
2023/01/07 02:35:54;;;;;;;8.50;3.67;;;;;;;;;;5094802;28;20056;-59
2023/01/07 02:38:32;;;;;;;6.70;3.23;;;;;;;;;;5096243;28;20028;-57
2023/01/07 02:41:04;;;;;;;7.60;2.60;;;;;;;;;;5097618;28;20035;-58
2023/01/07 02:43:40;;;;;;;9.00;4.63;;;;;;;;;;5097325;28;20024;-59
2023/01/07 02:46:09;;;;;;;10.27;3.40;;;;;;;;;;5097270;28;20028;-61
2023/01/07 02:48:35;;;;;;;7.27;2.37;;;;;;;;;;5098105;28;20031;-62
2023/01/07 02:51:00;;;;;;;8.37;3.67;;;;;;;;;;5097267;28;20022;-59
2023/01/07 02:53:26;;;;;;;10.13;4.27;;;;;;;;;;5096658;28;20008;-58
2023/01/07 02:56:09;;;;;;;6.33;2.67;;;;;;;;;;5095826;28;20055;-58
2023/01/07 02:58:35;;;;;;;10.83;4.07;;;;;;;;;;5094559;28;20101;-58
2023/01/07 03:01:08;;;;;;;9.70;4.10;;;;;;;;;;5095786;28;20051;-58
2023/01/07 03:03:49;;;;;;;6.00;3.57;;;;;;;;;;5094406;28;20030;-63
2023/01/07 03:06:35;;;;;;;6.73;2.70;;;;;;;;;;5095442;28;20131;-58
2023/01/07 03:09:09;;;;;;;8.40;3.77;;;;;;;;;;5095427;28;20020;-62
2023/01/07 03:11:44;;;;;;;7.43;3.53;;;;;;;;;;5095665;28;20098;-58
2023/01/07 03:14:21;;;;;;;5.72;3.35;;;;;;;;;;5095644;28;20028;-59
2023/01/07 03:16:55;;;;;;;10.33;4.20;;;;;;;;;;5095745;28;20059;-59
2023/01/07 03:19:24;;;;;;;7.10;3.20;;;;;;;;;;5095527;28;20036;-57
2023/01/07 03:21:51;;;;;;;5.83;2.80;;;;;;;;;;5095569;28;20146;-58
2023/01/07 03:24:17;;;;;;;6.17;3.37;;;;;;;;;;5094134;28;20020;-58
2023/01/07 03:26:45;;;;;;;8.53;3.40;;;;;;;;;;5093965;28;20042;-57
2023/01/07 03:29:12;;;;;;;7.83;3.63;;;;;;;;;;5094985;28;20020;-58
2023/01/07 03:31:42;;;;;;;10.30;3.00;;;;;;;;;;5095409;28;20013;-57
2023/01/07 03:34:09;;;;;;;9.07;3.40;;;;;;;;;;5094043;28;20492;-59
2023/01/07 03:36:45;;;;;;;9.17;2.70;;;;;;;;;;5094488;28;20024;-57
2023/01/07 03:39:12;;;;;;;9.40;3.70;;;;;;;;;;5093590;28;20035;-57
2023/01/07 03:44:22;;;;;;;9.23;3.83;;;;;;;;;;5095184;28;20479;-59
2023/01/07 03:46:48;;;;;;;9.10;3.43;;;;;;;;;;5096711;28;20229;-59
2023/01/07 03:49:13;;;;;;;4.90;1.87;;;;;;;;;;5096168;28;20115;-58
2023/01/07 03:51:38;;;;;;;22.27;5.80;;;;;;;;;;5095180;28;20379;-60
2023/01/07 03:54:04;;;;;;;9.53;5.17;;;;;;;;;;5095232;28;20024;-65
2023/01/07 03:56:29;;;;;;;6.93;4.40;;;;;;;;;;5095824;28;20047;-58
2023/01/07 03:58:55;;;;;;;11.67;6.23;;;;;;;;;;5093886;28;20481;-58
2023/01/07 04:01:20;;;;;;;9.40;3.30;;;;;;;;;;5093211;28;20024;-58
2023/01/07 04:03:45;;;;;;;8.17;3.47;;;;;;;;;;5093030;28;20027;-57
2023/01/07 04:06:11;;;;;;;27.57;5.47;;;;;;;;;;5093025;28;20495;-57
2023/01/07 04:08:36;;;;;;;20.33;4.50;;;;;;;;;;5093283;28;20068;-58
2023/01/07 04:11:02;;;;;;;26.63;5.47;;;;;;;;;;5092943;28;20008;-58
2023/01/07 04:13:27;;;;;;;9.30;4.63;;;;;;;;;;5093159;28;20028;-57
2023/01/07 04:15:53;;;;;;;13.07;4.63;;;;;;;;;;5092951;28;20016;-59
2023/01/07 04:18:18;;;;;;;11.10;5.57;;;;;;;;;;5093036;28;20392;-57
2023/01/07 04:20:45;;;;;;;11.20;5.67;;;;;;;;;;5092885;28;20469;-62
2023/01/07 04:23:10;;;;;;;15.05;5.30;;;;;;;;;;5092825;28;20055;-59
2023/01/07 04:25:36;;;;;;;8.87;4.17;;;;;;;;;;5093193;28;20050;-59
2023/01/07 04:28:01;;;;;;;7.82;3.67;;;;;;;;;;5093171;28;20091;-58
2023/01/07 04:30:27;;;;;;;10.85;4.78;;;;;;;;;;5094431;28;20503;-59
2023/01/07 04:32:52;;;;;;;12.93;4.32;;;;;;;;;;5094440;28;20016;-60
2023/01/07 04:35:17;;;;;;;18.00;5.10;;;;;;;;;;5094656;28;20020;-61
2023/01/07 04:37:43;;;;;;;9.43;3.80;;;;;;;;;;5094474;28;20061;-58
2023/01/07 04:40:08;;;;;;;11.18;4.78;;;;;;;;;;5094273;28;20035;-58
2023/01/07 04:42:34;;;;;;;8.32;4.32;;;;;;;;;;5093202;28;20016;-61
2023/01/07 04:44:59;;;;;;;8.38;4.22;;;;;;;;;;5092747;28;20055;-62
2023/01/07 04:47:25;;;;;;;8.93;4.00;;;;;;;;;;5094260;28;20465;-61
2023/01/07 04:49:50;;;;;;;14.07;5.63;;;;;;;;;;5093317;28;20012;-58
2023/01/07 04:52:16;;;;;;;9.68;4.72;;;;;;;;;;5092351;28;20020;-58
2023/01/07 04:54:41;;;;;;;38.58;6.43;;;;;;;;;;5093901;28;20426;-59
2023/01/07 04:57:07;;;;;;;16.23;6.15;;;;;;;;;;5094158;28;20027;-58
2023/01/07 04:59:32;;;;;;;9.25;5.32;;;;;;;;;;5094102;28;20054;-57
2023/01/07 05:01:58;;;;;;;9.13;4.50;;;;;;;;;;5093457;28;20099;-58
2023/01/07 05:04:23;;;;;;;10.18;5.75;;;;;;;;;;5093877;28;20457;-58
2023/01/07 05:06:48;;;;;;;6.63;4.17;;;;;;;;;;5094418;28;20048;-57
2023/01/07 05:09:14;;;;;;;8.55;4.75;;;;;;;;;;5096060;28;20069;-59
2023/01/07 05:11:40;;;;;;;8.52;3.80;;;;;;;;;;5092434;28;20094;-58
2023/01/07 05:14:06;;;;;;;7.47;3.67;;;;;;;;;;5093507;28;20024;-59
2023/01/07 05:16:32;;;;;;;6.43;3.77;;;;;;;;;;5091972;28;20027;-58
2023/01/07 05:18:57;;;;;;;10.00;3.93;;;;;;;;;;5092905;28;20050;-57
2023/01/07 05:21:22;;;;;;;8.98;4.32;;;;;;;;;;5093468;28;20024;-58
2023/01/07 05:23:48;;;;;;;8.65;3.67;;;;;;;;;;5093358;28;20044;-59
2023/01/07 05:26:13;;;;;;;2.60;1.70;;;;;;;;;;5093213;28;20016;-58
2023/01/07 05:28:40;;;;;;;9.10;4.23;;;;;;;;;;5093217;28;20397;-58
2023/01/07 05:31:05;;;;;;;10.03;4.33;;;;;;;;;;5091802;28;20032;-56
2023/01/07 05:33:31;;;;;;;7.70;3.43;;;;;;;;;;5093262;28;20026;-58
2023/01/07 05:35:56;;;;;;;6.37;3.10;;;;;;;;;;5092324;28;20020;-57
2023/01/07 05:38:22;;;;;;;11.55;4.43;;;;;;;;;;5093617;28;20016;-57
2023/01/07 05:40:48;;;;;;;6.68;3.15;;;;;;;;;;5093563;28;20038;-59
2023/01/07 05:43:13;;;;;;;7.80;3.65;;;;;;;;;;5093351;28;20451;-59
2023/01/07 05:45:39;;;;;;;4.72;2.92;;;;;;;;;;5091881;28;20028;-61
2023/01/07 05:48:04;;;;;;;9.07;3.30;;;;;;;;;;5093239;28;20469;-58
2023/01/07 05:50:30;;;;;;;10.65;4.28;;;;;;;;;;5091512;28;20090;-59
2023/01/07 05:52:55;;;;;;;7.63;3.35;;;;;;;;;;5092570;28;20020;-58
2023/01/07 05:55:20;;;;;;;4.47;2.78;;;;;;;;;;5093170;28;20020;-58
2023/01/07 05:57:46;;;;;;;6.38;3.03;;;;;;;;;;5091545;28;20020;-60
2023/01/07 06:00:12;;;;;;;7.30;3.08;;;;;;;;;;5091237;28;20504;-59
2023/01/07 06:02:37;;;;;;;4.35;2.33;;;;;;;;;;5091507;28;20153;-57
2023/01/07 06:05:03;;;;;;;5.45;3.15;;;;;;;;;;5092502;28;20468;-58
2023/01/07 06:07:28;;;;;;;6.80;3.90;;;;;;;;;;5091124;28;20085;-60
2023/01/07 06:09:54;;;;;;;9.40;3.60;;;;;;;;;;5091507;28;20096;-57
2023/01/07 06:12:19;;;;;;;6.75;3.63;;;;;;;;;;5092499;28;20031;-57
2023/01/07 06:14:45;;;;;;;12.80;3.97;;;;;;;;;;5092600;28;20012;-57
2023/01/07 06:17:10;;;;;;;4.22;1.73;;;;;;;;;;5092546;28;20020;-58
2023/01/07 06:19:36;;;;;;;3.70;1.85;;;;;;;;;;5092610;28;20423;-57
2023/01/07 06:22:02;;;;;;;5.88;3.45;;;;;;;;;;5093051;28;20027;-57
2023/01/07 06:24:27;;;;;;;3.45;1.77;;;;;;;;;;5091836;28;20473;-58
2023/01/07 06:26:53;;;;;;;2.95;1.65;;;;;;;;;;5091825;28;20456;-57
2023/01/07 06:29:18;;;;;;;4.25;2.55;;;;;;;;;;5093229;28;20008;-56
2023/01/07 06:31:43;;;;;;;9.20;4.40;;;;;;;;;;5091786;28;20020;-57
2023/01/07 06:34:09;;;;;;;9.60;4.72;;;;;;;;;;5093291;28;20024;-57
2023/01/07 06:36:34;;;;;;;9.52;3.72;;;;;;;;;;5091738;28;20028;-57
2023/01/07 06:39:00;;;;;;;6.13;3.50;;;;;;;;;;5092301;28;20032;-57
2023/01/07 06:41:25;;;;;;;6.20;2.85;;;;;;;;;;5092401;28;20016;-57
2023/01/07 06:43:50;;;;;;;8.85;4.47;;;;;;;;;;5092524;28;20020;-57
2023/01/07 06:46:16;;;;;;;9.80;3.90;;;;;;;;;;5092501;28;20095;-57
2023/01/07 06:48:41;;;;;;;9.80;4.78;;;;;;;;;;5092238;28;20107;-57
2023/01/07 06:51:07;;;;;;;6.22;3.05;;;;;;;;;;5091442;28;20026;-58
2023/01/07 06:53:32;;;;;;;4.88;2.13;;;;;;;;;;5092905;28;20016;-56
2023/01/07 06:55:57;;;;;;;4.23;2.23;;;;;;;;;;5092372;28;20027;-57
2023/01/07 06:58:23;;;;;;;3.92;2.03;;;;;;;;;;5092362;28;20376;-58
2023/01/07 07:00:48;;;;;;;3.40;1.77;;;;;;;;;;5090726;28;20085;-59
2023/01/07 07:03:14;;;;;;;4.53;2.00;;;;;;;;;;5091783;28;20008;-56
2023/01/07 07:05:39;;;;;;;4.15;2.10;;;;;;;;;;5090403;28;20040;-57
2023/01/07 07:08:05;;;;;;;7.30;3.78;;;;;;;;;;5092018;28;20043;-57
2023/01/07 07:10:31;;;;;;;3.55;1.45;;;;;;;;;;5091995;28;20076;-56
2023/01/07 07:12:56;;;;;;;6.28;2.40;;;;;;;;;;5093097;28;20043;-57
2023/01/07 07:15:21;;;;;;;5.50;2.25;;;;;;;;;;5094245;28;20483;-56
2023/01/07 07:17:47;;;;;;;3.63;2.42;;;;;;;;;;5095503;28;20427;-56
2023/01/07 07:20:12;;;;;;;2.78;1.52;;;;;;;;;;5094104;28;20032;-57
2023/01/07 07:22:42;;;;;;;8.82;4.78;;;;;;;;;;5095294;28;20020;-57
2023/01/07 07:25:08;;;;;;;9.60;3.15;;;;;;;;;;5094158;28;20376;-57
2023/01/07 07:27:33;;;;;;;6.82;3.58;;;;;;;;;;5094267;28;20009;-57
2023/01/07 07:29:59;;;;;;;5.05;2.97;;;;;;;;;;5094047;28;20568;-57
2023/01/07 07:32:27;;;;;;;4.82;2.50;;;;;;;;;;5095987;28;20015;-57
2023/01/07 07:34:53;;;;;;;9.60;5.22;;;;;;;;;;5095219;28;20377;-58
2023/01/07 07:37:19;;;;;;;6.30;3.20;;;;;;;;;;5095521;28;20012;-57
2023/01/07 07:39:44;;;;;;;6.10;3.20;;;;;;;;;;5094115;28;20038;-57
2023/01/07 07:42:10;;;;;;;8.88;4.25;;;;;;;;;;5095544;28;20023;-57
2023/01/07 07:44:35;;;;;;;7.95;3.20;;;;;;;;;;5095901;28;20449;-58
2023/01/07 07:47:01;;;;;;;6.70;1.98;;;;;;;;;;5096821;28;20024;-60
2023/01/07 07:49:26;;;;;;;7.85;4.25;;;;;;;;;;5098088;28;20020;-59
2023/01/07 07:51:51;;;;;;;4.28;2.08;;;;;;;;;;5095755;28;20111;-66
2023/01/07 07:54:17;;;;;;;5.22;2.20;;;;;;;;;;5093782;28;20024;-59
2023/01/07 07:56:42;;;;;;;6.35;2.38;;;;;;;;;;5095438;28;20016;-58
2023/01/07 07:59:08;;;;;;;7.53;3.33;;;;;;;;;;5094668;28;20046;-58
2023/01/07 08:01:33;;;;;;;7.50;3.92;;;;;;;;;;5093548;28;20452;-58
2023/01/07 08:03:59;;;;;;;8.07;3.75;;;;;;;;;;5094984;28;20020;-58
2023/01/07 08:06:24;;;;;;;7.10;3.95;;;;;;;;;;5093480;28;20097;-60
2023/01/07 08:08:50;;;;;;;8.55;3.03;;;;;;;;;;5093578;28;20093;-59
2023/01/07 08:11:15;;;;;;;4.07;1.92;;;;;;;;;;5093177;28;20030;-59
2023/01/07 08:13:40;;;;;;;7.50;4.00;;;;;;;;;;5094512;28;20016;-59
2023/01/07 08:16:06;;;;;;;7.38;2.75;;;;;;;;;;5094406;28;20016;-59
2023/01/07 08:18:31;;;;;;;10.82;2.50;;;;;;;;;;5093364;28;20024;-60
2023/01/07 08:20:57;;;;;;;8.57;3.67;;;;;;;;;;5094783;28;20052;-59
2023/01/07 08:23:23;;;;;;;3.05;1.90;;;;;;;;;;5095404;28;20012;-64
2023/01/07 08:25:48;;;;;;;3.92;2.20;;;;;;;;;;5096385;28;20093;-58
2023/01/07 08:28:13;;;;;;;6.65;2.40;;;;;;;;;;5093539;28;20027;-58
2023/01/07 08:30:39;;;;;;;11.18;4.55;;;;;;;;;;5094528;28;20024;-59
2023/01/07 08:33:06;;;;;;;4.15;2.40;;;;;;;;;;5094123;28;20061;-58
2023/01/07 08:35:31;;;;;;;3.13;1.52;;;;;;;;;;5093053;28;20020;-63
2023/01/07 08:38:01;;;;;;;7.07;3.53;;;;;;;;;;5094853;28;20108;-59
2023/01/07 08:40:26;;;;;;;7.70;3.08;;;;;;;;;;5094547;28;20028;-59
2023/01/07 08:42:52;;;;;;;11.50;4.97;;;;;;;;;;5092362;28;20391;-59
2023/01/07 08:45:17;;;;;;;8.07;4.00;;;;;;;;;;5092410;28;20020;-59
2023/01/07 08:47:45;;;;;;;8.02;3.45;;;;;;;;;;5092353;28;20026;-61
2023/01/07 08:50:10;;;;;;;11.18;4.80;;;;;;;;;;5093967;28;20012;-61
2023/01/07 08:52:36;;;;;;;4.95;2.17;;;;;;;;;;5092903;28;20020;-61
2023/01/07 08:55:02;;;;;;;6.05;2.83;;;;;;;;;;5094067;28;20012;-60
2023/01/07 08:57:27;;;;;;;9.55;4.18;;;;;;;;;;5093687;28;20028;-59
2023/01/07 08:59:52;;;;;;;9.35;4.18;;;;;;;;;;5092314;28;20027;-60
2023/01/07 09:02:18;;;;;;;7.95;3.72;;;;;;;;;;5093509;28;20011;-60
2023/01/07 09:04:44;;;;;;;6.20;2.65;;;;;;;;;;5093437;28;20051;-61
2023/01/07 09:07:10;;;;;;;9.15;3.88;;;;;;;;;;5091556;28;20047;-60
2023/01/07 09:09:35;;;;;;;9.20;3.50;;;;;;;;;;5092410;28;20055;-60
2023/01/07 09:12:01;;;;;;;6.80;1.85;;;;;;;;;;5091864;28;20023;-60
2023/01/07 09:14:27;;;;;;;4.70;2.70;;;;;;;;;;5093279;28;20020;-59
2023/01/07 09:16:52;;;;;;;8.52;4.47;;;;;;;;;;5091892;28;20073;-59
2023/01/07 09:19:18;;;;;;;4.22;2.85;;;;;;;;;;5091618;28;20040;-61
2023/01/07 09:21:43;;;;;;;11.02;5.53;;;;;;;;;;5093296;28;20093;-60
2023/01/07 09:24:09;;;;;;;10.13;5.25;;;;;;;;;;5092039;28;20026;-59
2023/01/07 09:26:35;;;;;;;4.15;2.38;;;;;;;;;;5093073;28;20016;-60
2023/01/07 09:29:00;;;;;;;9.55;5.20;;;;;;;;;;5093109;28;20444;-60
2023/01/07 09:31:25;;;;;;;11.63;5.63;;;;;;;;;;5091370;28;20552;-59
2023/01/07 09:33:51;;;;;;;4.93;2.33;;;;;;;;;;5093189;28;20016;-60
2023/01/07 09:36:16;;;;;;;9.82;5.18;;;;;;;;;;5091909;28;20012;-59
2023/01/07 09:38:43;;;;;;;8.52;3.25;;;;;;;;;;5091773;28;20385;-59
2023/01/07 09:41:24;;;;;;;9.73;4.63;;;;;;;;;;5091229;28;20024;-61
2023/01/07 09:43:53;;;;;;;9.98;4.45;;;;;;;;;;5092441;28;20464;-60
2023/01/07 09:46:19;;;;;;;9.43;4.43;;;;;;;;;;5094138;28;20341;-60
2023/01/07 09:48:46;;;;;;;12.27;5.35;;;;;;;;;;5094885;28;20012;-61
2023/01/07 09:51:11;;;;;;;8.05;4.63;;;;;;;;;;5094276;28;20020;-60
2023/01/07 09:53:37;;;;;;;3.60;2.00;;;;;;;;;;5092472;28;20063;-61
2023/01/07 09:56:05;;;;;;;8.02;4.20;;;;;;;;;;5094048;28;20012;-68
2023/01/07 09:58:30;;;;;;;9.90;4.10;;;;;;;;;;5091710;28;20024;-68
2023/01/07 10:01:16;;;;;;;5.43;2.67;;;;;;;;;;5092136;28;20104;-73
2023/01/07 10:03:55;;;;;;;7.85;3.25;;;;;;;;;;5073487;28;20032;-66
2023/01/07 10:06:25;;;;;;;3.20;2.50;;;;;;;;;;5091364;28;20533;-67
2023/01/07 10:09:26;;;;;;;4.85;2.80;;;;;;;;;;5092316;28;20078;-69
2023/01/07 10:11:59;;;;;;;5.82;2.20;;;;;;;;;;5029657;28;20075;-67
2023/01/07 10:14:33;;;;;;;8.57;4.38;;;;;;;;;;5081973;28;20028;-68
2023/01/07 10:16:58;;;;;;;5.55;2.10;;;;;;;;;;5091926;28;20016;-69
2023/01/07 10:19:27;;;;;;;10.88;4.38;;;;;;;;;;5090292;28;20039;-68
2023/01/07 10:21:56;;;;;;;8.95;4.60;;;;;;;;;;5090876;28;20395;-68
2023/01/07 10:24:25;;;;;;;6.70;3.13;;;;;;;;;;5091854;28;20119;-71
2023/01/07 10:26:52;;;;;;;3.03;1.70;;;;;;;;;;5090662;28;20024;-70
2023/01/07 10:29:21;;;;;;;3.33;2.13;;;;;;;;;;5090548;28;20070;-69
2023/01/07 10:31:47;;;;;;;6.25;3.60;;;;;;;;;;5090565;28;20043;-69
2023/01/07 10:34:20;;;;;;;4.55;2.65;;;;;;;;;;5092231;28;20107;-70
2023/01/07 10:36:52;;;;;;;9.90;4.40;;;;;;;;;;5092124;28;20052;-69
2023/01/07 10:39:36;;;;;;;10.68;5.85;;;;;;;;;;5090624;28;20024;-69
2023/01/07 10:42:20;;;;;;;8.30;4.20;;;;;;;;;;5090580;28;20031;-71
2023/01/07 10:45:04;;;;;;;7.18;3.03;;;;;;;;;;5090620;28;20396;-69
2023/01/07 10:47:46;;;;;;;9.60;4.63;;;;;;;;;;5092304;28;20027;-69
2023/01/07 10:50:26;;;;;;;6.30;2.22;;;;;;;;;;5095565;28;20028;-73
2023/01/07 10:53:04;;;;;;;7.38;4.82;;;;;;;;;;5095594;28;20020;-73
2023/01/07 10:55:48;;;;;;;8.05;3.55;;;;;;;;;;5094103;28;20055;-72
2023/01/07 10:58:14;;;;;;;7.27;3.37;;;;;;;;;;5095973;28;20027;-73
2023/01/07 11:00:40;;;;;;;13.75;4.72;;;;;;;;;;5095221;28;20028;-74
2023/01/07 11:03:14;;;;;;;8.65;2.20;;;;;;;;;;5094804;28;20024;-69
2023/01/07 11:05:40;;;;;;;10.13;4.57;;;;;;;;;;5095026;28;20407;-69
2023/01/07 11:08:11;;;;;;;8.40;3.97;;;;;;;;;;5094000;28;20099;-67
2023/01/07 11:10:36;;;;;;;6.60;3.50;;;;;;;;;;5095347;28;20024;-67
2023/01/07 11:13:27;;;;;;;7.95;4.00;;;;;;;;;;5094510;28;20012;-68
2023/01/07 11:15:58;;;;;;;7.93;4.10;;;;;;;;;;5091562;28;20032;-68
2023/01/07 11:18:39;;;;;;;7.80;3.63;;;;;;;;;;5093790;28;20472;-69
2023/01/07 11:21:04;;;;;;;6.03;2.15;;;;;;;;;;5093481;28;20552;-69
2023/01/07 11:23:35;;;;;;;10.93;3.30;;;;;;;;;;5094637;28;20108;-69
2023/01/07 11:26:26;;;;;;;6.22;3.67;;;;;;;;;;5094791;28;20425;-71
2023/01/07 11:28:54;;;;;;;4.68;2.60;;;;;;;;;;5091430;28;20024;-70
2023/01/07 11:31:20;;;;;;;5.20;2.20;;;;;;;;;;5094702;28;20019;-70
2023/01/07 11:33:51;;;;;;;12.85;5.05;;;;;;;;;;5093376;28;20027;-72
2023/01/07 11:36:16;;;;;;;9.00;3.42;;;;;;;;;;5094828;28;20063;-70
2023/01/07 11:38:43;;;;;;;7.22;3.08;;;;;;;;;;5094714;28;20413;-73
2023/01/07 11:41:22;;;;;;;7.35;4.43;;;;;;;;;;5093536;28;20477;-72
2023/01/07 11:43:49;;;;;;;1.92;1.33;;;;;;;;;;5095099;28;20020;-72
2023/01/07 11:46:16;;;;;;;6.07;2.92;;;;;;;;;;5094737;28;20020;-73
2023/01/07 11:48:51;;;;;;;6.10;2.85;;;;;;;;;;5094366;28;20031;-73
2023/01/07 11:51:17;;;;;;;9.52;3.53;;;;;;;;;;5094151;28;20019;-73
2023/01/07 11:53:51;;;;;;;8.70;4.45;;;;;;;;;;5094445;28;20044;-73
2023/01/07 11:56:19;;;;;;;7.57;3.23;;;;;;;;;;5094891;28;20012;-71
2023/01/07 11:59:06;;;;;;;6.22;3.20;;;;;;;;;;5093088;28;20023;-71
2023/01/07 12:01:39;;;;;;;9.55;3.72;;;;;;;;;;5083218;28;20032;-73
2023/01/07 12:04:20;;;;;;;8.57;4.32;;;;;;;;;;5092754;28;20024;-71
2023/01/07 12:06:46;;;;;;;8.40;4.10;;;;;;;;;;5092489;28;20044;-75
2023/01/07 12:09:33;;;;;;;8.55;4.00;;;;;;;;;;5093560;28;20107;-68
2023/01/07 12:12:06;;;;;;;5.72;2.88;;;;;;;;;;5093508;28;20020;-70
2023/01/07 12:14:33;;;;;;;10.52;5.15;;;;;;;;;;5094075;28;20551;-68
2023/01/07 12:17:20;;;;;;;3.45;2.35;;;;;;;;;;5092257;28;20027;-68
2023/01/07 12:20:04;;;;;;;6.60;2.33;;;;;;;;;;5092078;28;20039;-66
2023/01/07 12:22:38;;;;;;;6.18;3.35;;;;;;;;;;5093516;28;20468;-68
2023/01/07 12:25:03;;;;;;;4.57;1.45;;;;;;;;;;5091919;28;20027;-69
2023/01/07 12:27:47;;;;;;;4.05;2.20;;;;;;;;;;5092053;28;20073;-69
2023/01/07 12:30:29;;;;;;;8.18;3.40;;;;;;;;;;5091993;28;20016;-69
2023/01/07 12:32:55;;;;;;;6.18;3.25;;;;;;;;;;5093349;28;20506;-70
2023/01/07 12:35:25;;;;;;;3.72;2.05;;;;;;;;;;5091876;28;20020;-68
2023/01/07 12:38:12;;;;;;;5.07;2.65;;;;;;;;;;5093465;28;20039;-68
2023/01/07 12:40:37;;;;;;;2.65;1.70;;;;;;;;;;5082207;28;20471;-68
2023/01/07 12:43:23;;;;;;;11.88;5.60;;;;;;;;;;5091248;28;20056;-67
2023/01/07 12:45:56;;;;;;;10.45;5.03;;;;;;;;;;5081606;28;20021;-69
2023/01/07 12:48:35;;;;;;;8.55;3.63;;;;;;;;;;5092971;28;20020;-68
2023/01/07 12:51:03;;;;;;;10.73;6.05;;;;;;;;;;5092955;28;20029;-69
2023/01/07 12:53:41;;;;;;;10.63;5.90;;;;;;;;;;5092853;28;20104;-69
2023/01/07 12:56:15;;;;;;;7.00;3.55;;;;;;;;;;5091806;28;20016;-67
2023/01/07 12:58:59;;;;;;;14.45;7.75;;;;;;;;;;5093089;28;20024;-67
2023/01/07 13:01:40;;;;;;;11.07;6.18;;;;;;;;;;5091572;28;20115;-68
2023/01/07 13:04:15;;;;;;;8.40;3.83;;;;;;;;;;5091859;28;20016;-68
2023/01/07 13:07:03;;;;;;;17.17;6.70;;;;;;;;;;5092719;28;20052;-67
2023/01/07 13:09:49;;;;;;;11.18;5.95;;;;;;;;;;5062523;28;20430;-68
2023/01/07 13:12:41;;;;;;;30.77;8.35;;;;;;;;;;5092291;28;20016;-69
2023/01/07 13:15:26;;;;;;;7.40;3.35;;;;;;;;;;5092133;28;20028;-66
2023/01/07 13:17:53;;;;;;;10.88;4.72;;;;;;;;;;5091046;28;20026;-63
2023/01/07 13:20:39;;;;;;;15.70;5.30;;;;;;;;;;5090987;28;20049;-65
2023/01/07 13:23:05;;;;;;;17.25;9.50;;;;;;;;;;5091532;28;20035;-63
2023/01/07 13:25:50;;;;;;;11.50;4.78;;;;;;;;;;5091281;28;20119;-64
2023/01/07 13:28:26;;;;;;;15.23;7.22;;;;;;;;;;5090943;28;20492;-65
2023/01/07 13:31:09;;;;;;;11.02;5.00;;;;;;;;;;5092412;28;20056;-65
2023/01/07 13:33:59;;;;;;;17.67;8.38;;;;;;;;;;5092068;28;20024;-64
2023/01/07 13:36:27;;;;;;;15.80;8.68;;;;;;;;;;5090870;28;20016;-65
2023/01/07 13:39:02;;;;;;;16.77;7.68;;;;;;;;;;5090353;28;20469;-65
2023/01/07 13:41:27;;;;;;;16.50;7.60;;;;;;;;;;5090569;28;20031;-66
2023/01/07 13:43:56;;;;;;;15.70;7.53;;;;;;;;;;5092131;28;20020;-66
2023/01/07 13:46:24;;;;;;;7.40;3.50;;;;;;;;;;5090387;28;20109;-66
2023/01/07 13:48:50;;;;;;;12.07;6.15;;;;;;;;;;5091827;28;20099;-66
2023/01/07 13:51:24;;;;;;;18.23;8.68;;;;;;;;;;5090052;28;20031;-66
2023/01/07 13:53:50;;;;;;;13.48;6.32;;;;;;;;;;5091780;28;20090;-68
2023/01/07 13:56:15;;;;;;;13.70;6.90;;;;;;;;;;5091966;28;20041;-66
2023/01/07 13:58:59;;;;;;;18.80;9.10;;;;;;;;;;5091936;28;20103;-66
2023/01/07 14:01:29;;;;;;;14.40;7.05;;;;;;;;;;5091645;28;20032;-65
2023/01/07 14:03:57;;;;;;;12.55;4.63;;;;;;;;;;5091728;28;20024;-64
2023/01/07 14:06:26;;;;;;;12.38;5.45;;;;;;;;;;5090131;28;20044;-64
2023/01/07 14:08:51;;;;;;;10.75;5.15;;;;;;;;;;5090523;28;20407;-64
2023/01/07 14:11:18;;;;;;;5.43;3.30;;;;;;;;;;5092287;28;20532;-65
2023/01/07 14:13:51;;;;;;;23.35;11.40;;;;;;;;;;5091793;28;20008;-66
2023/01/07 14:16:24;;;;;;;8.88;5.55;;;;;;;;;;5092016;28;20016;-65
2023/01/07 14:19:09;;;;;;;19.98;9.40;;;;;;;;;;5091844;28;20059;-68
2023/01/07 14:21:38;;;;;;;10.07;5.18;;;;;;;;;;5092819;28;20377;-65
2023/01/07 14:24:06;;;;;;;19.50;9.30;;;;;;;;;;5095862;28;20028;-66
2023/01/07 14:26:52;;;;;;;9.43;4.72;;;;;;;;;;5094669;28;20016;-64
2023/01/07 14:29:38;;;;;;;26.05;11.85;;;;;;;;;;5094636;28;20358;-66
2023/01/07 14:32:24;;;;;;;18.85;9.43;;;;;;;;;;5096182;28;20038;-64
2023/01/07 14:34:55;;;;;;;11.13;4.43;;;;;;;;;;5095273;28;20024;-64
2023/01/07 14:37:31;;;;;;;13.43;5.97;;;;;;;;;;5094554;28;20024;-65
2023/01/07 14:39:57;;;;;;;21.23;9.13;;;;;;;;;;5095310;28;20519;-66
2023/01/07 14:42:27;;;;;;;15.68;6.63;;;;;;;;;;5094221;28;20015;-66
2023/01/07 14:44:52;;;;;;;19.50;8.90;;;;;;;;;;5095284;28;20016;-65
2023/01/07 14:47:36;;;;;;;13.15;6.55;;;;;;;;;;5095186;28;20069;-64
2023/01/07 14:50:21;;;;;;;11.38;5.47;;;;;;;;;;5093508;28;20495;-65
2023/01/07 14:53:06;;;;;;;12.57;6.05;;;;;;;;;;5095857;28;20376;-66
2023/01/07 14:55:38;;;;;;;20.38;7.05;;;;;;;;;;5094480;28;20365;-66
2023/01/07 14:58:12;;;;;;;14.77;5.40;;;;;;;;;;5094209;28;20540;-66